Time;durP1;ratioP1;P1;durP2;ratioP2;P2;SDS_P1;SDS_P2;PMS_P1;PMS_P2;Temp;Humidity;BMP_temperature;BMP_pressure;BME280_temperature;BME280_humidity;BME280_pressure;Samples;Min_cycle;Max_cycle;Signal;HPM_P1;HPM_P2
2022/07/31 00:01:53;;;;;;;4.57;4.17;;;;;;;;;;5074001;28;20925;-71
2022/07/31 00:04:22;;;;;;;3.93;3.63;;;;;;;;;;5073837;28;20494;-71
2022/07/31 00:06:49;;;;;;;5.03;4.53;;;;;;;;;;5073706;28;20455;-71
2022/07/31 00:09:16;;;;;;;7.53;6.03;;;;;;;;;;5073914;28;20806;-71
2022/07/31 00:11:43;;;;;;;4.87;4.37;;;;;;;;;;5073908;28;20452;-71
2022/07/31 00:14:11;;;;;;;9.73;4.27;;;;;;;;;;5073909;28;20448;-71
2022/07/31 00:16:39;;;;;;;6.43;5.10;;;;;;;;;;5073889;28;20452;-71
2022/07/31 00:19:06;;;;;;;5.70;5.20;;;;;;;;;;5073414;28;20486;-71
2022/07/31 00:21:33;;;;;;;4.60;4.20;;;;;;;;;;5073819;28;20925;-71
2022/07/31 00:24:00;;;;;;;4.50;4.10;;;;;;;;;;5073761;28;20447;-71
2022/07/31 00:26:28;;;;;;;5.00;4.50;;;;;;;;;;5073373;28;20456;-71
2022/07/31 00:28:55;;;;;;;4.20;3.80;;;;;;;;;;5073694;28;20459;-71
2022/07/31 00:31:23;;;;;;;4.80;4.40;;;;;;;;;;5073752;28;20454;-71
2022/07/31 00:33:51;;;;;;;5.47;4.50;;;;;;;;;;5072732;28;20476;-71
2022/07/31 00:36:18;;;;;;;3.80;3.50;;;;;;;;;;5073542;28;20452;-71
2022/07/31 00:38:45;;;;;;;5.70;4.13;;;;;;;;;;5073219;28;20499;-71
2022/07/31 00:41:13;;;;;;;3.83;3.53;;;;;;;;;;5073552;28;20924;-71
2022/07/31 00:43:40;;;;;;;4.27;3.90;;;;;;;;;;5073191;28;20491;-71
2022/07/31 00:46:07;;;;;;;4.67;4.27;;;;;;;;;;5073501;28;20868;-71
2022/07/31 00:48:34;;;;;;;5.00;4.53;;;;;;;;;;5073491;28;20451;-71
2022/07/31 00:51:04;;;;;;;5.60;4.20;;;;;;;;;;5073396;28;20525;-71
2022/07/31 00:53:31;;;;;;;3.83;3.53;;;;;;;;;;5073143;28;20518;-71
2022/07/31 00:55:58;;;;;;;4.40;4.00;;;;;;;;;;5073355;28;20960;-71
2022/07/31 00:58:25;;;;;;;4.53;4.03;;;;;;;;;;5073276;28;20543;-71
2022/07/31 01:00:52;;;;;;;9.63;4.23;;;;;;;;;;5073585;28;20457;-71
2022/07/31 01:03:19;;;;;;;4.63;4.30;;;;;;;;;;5072958;28;20483;-71
2022/07/31 01:05:46;;;;;;;4.63;4.23;;;;;;;;;;5073284;28;20448;-71
2022/07/31 01:08:15;;;;;;;4.27;3.97;;;;;;;;;;5072971;28;20448;-71
2022/07/31 01:10:46;;;;;;;7.40;4.40;;;;;;;;;;5073528;28;20428;-71
2022/07/31 01:13:15;;;;;;;4.70;4.37;;;;;;;;;;5073198;28;20494;-71
2022/07/31 01:15:43;;;;;;;4.87;4.47;;;;;;;;;;5073308;28;20462;-71
2022/07/31 01:18:10;;;;;;;4.90;4.50;;;;;;;;;;5073431;28;20458;-71
2022/07/31 01:20:38;;;;;;;4.30;4.00;;;;;;;;;;5073071;28;20488;-71
2022/07/31 01:23:17;;;;;;;4.80;4.30;;;;;;;;;;5073130;28;21000;-71
2022/07/31 01:25:47;;;;;;;4.43;4.10;;;;;;;;;;5073138;28;20436;-71
2022/07/31 01:28:19;;;;;;;5.63;5.13;;;;;;;;;;5073358;28;20810;-71
2022/07/31 01:30:49;;;;;;;8.70;5.40;;;;;;;;;;5073066;28;20493;-71
2022/07/31 01:33:20;;;;;;;6.27;4.03;;;;;;;;;;5072958;28;20977;-71
2022/07/31 01:35:50;;;;;;;4.60;4.20;;;;;;;;;;5073059;28;20436;-71
2022/07/31 01:38:19;;;;;;;4.40;4.00;;;;;;;;;;5073465;28;20925;-71
2022/07/31 01:40:48;;;;;;;4.20;3.80;;;;;;;;;;5073104;28;20487;-71
2022/07/31 01:43:18;;;;;;;4.87;4.40;;;;;;;;;;5072461;28;20491;-71
2022/07/31 01:45:48;;;;;;;4.73;4.37;;;;;;;;;;5074111;28;20577;-71
2022/07/31 01:48:17;;;;;;;5.03;4.57;;;;;;;;;;5076583;28;20455;-71
2022/07/31 01:50:45;;;;;;;4.87;4.40;;;;;;;;;;5076686;28;20893;-71
2022/07/31 01:53:13;;;;;;;4.60;4.27;;;;;;;;;;5076495;28;20976;-71
2022/07/31 01:55:43;;;;;;;4.97;4.43;;;;;;;;;;5076551;28;20458;-71
2022/07/31 01:58:10;;;;;;;4.83;3.93;;;;;;;;;;5076482;28;20940;-71
2022/07/31 02:00:38;;;;;;;4.73;4.27;;;;;;;;;;5076455;28;20474;-71
2022/07/31 02:03:06;;;;;;;5.20;4.70;;;;;;;;;;5076292;28;20475;-71
2022/07/31 02:05:35;;;;;;;4.60;4.20;;;;;;;;;;5076382;28;20531;-71
2022/07/31 02:08:03;;;;;;;4.77;4.17;;;;;;;;;;5076264;28;20455;-71
2022/07/31 02:10:31;;;;;;;4.27;3.87;;;;;;;;;;5076230;28;20458;-71
2022/07/31 02:12:59;;;;;;;5.23;4.20;;;;;;;;;;5075861;28;20471;-71
2022/07/31 02:15:27;;;;;;;5.80;4.67;;;;;;;;;;5076151;28;20474;-71
2022/07/31 02:17:54;;;;;;;4.87;4.37;;;;;;;;;;5075867;28;20452;-71
2022/07/31 02:20:22;;;;;;;3.83;3.53;;;;;;;;;;5075960;28;20491;-71
2022/07/31 02:22:50;;;;;;;4.63;4.10;;;;;;;;;;5075965;28;20468;-71
2022/07/31 02:25:18;;;;;;;4.33;4.03;;;;;;;;;;5076286;28;20530;-71
2022/07/31 02:27:45;;;;;;;6.43;4.20;;;;;;;;;;5075663;28;20450;-71
2022/07/31 02:30:13;;;;;;;4.67;4.27;;;;;;;;;;5075625;28;20436;-71
2022/07/31 02:32:41;;;;;;;5.80;4.30;;;;;;;;;;5075791;28;20965;-71
2022/07/31 02:35:08;;;;;;;6.20;4.17;;;;;;;;;;5075742;28;20448;-71
2022/07/31 02:37:36;;;;;;;4.90;4.50;;;;;;;;;;5075747;28;20814;-71
2022/07/31 02:40:06;;;;;;;5.03;4.00;;;;;;;;;;5075959;28;20476;-71
2022/07/31 02:42:33;;;;;;;7.00;4.80;;;;;;;;;;5075723;28;20852;-71
2022/07/31 02:45:01;;;;;;;5.53;5.07;;;;;;;;;;5075621;28;20816;-71
2022/07/31 02:47:29;;;;;;;5.10;4.70;;;;;;;;;;5075557;28;20484;-71
2022/07/31 02:49:57;;;;;;;5.77;4.80;;;;;;;;;;5075536;28;20820;-71
2022/07/31 02:52:25;;;;;;;5.70;4.27;;;;;;;;;;5075454;28;20479;-71
2022/07/31 02:54:52;;;;;;;5.17;4.77;;;;;;;;;;5075427;28;20822;-71
2022/07/31 02:57:21;;;;;;;5.37;4.87;;;;;;;;;;5074896;28;20448;-70
2022/07/31 02:59:48;;;;;;;4.60;4.20;;;;;;;;;;5075226;28;20490;-70
2022/07/31 03:02:15;;;;;;;6.50;4.83;;;;;;;;;;5075226;28;20479;-70
2022/07/31 03:04:42;;;;;;;6.13;5.63;;;;;;;;;;5074961;28;20451;-70
2022/07/31 03:07:10;;;;;;;6.30;5.80;;;;;;;;;;5075208;28;20937;-70
2022/07/31 03:09:37;;;;;;;6.37;5.70;;;;;;;;;;5075141;28;20470;-70
2022/07/31 03:12:04;;;;;;;7.10;5.57;;;;;;;;;;5074742;28;20467;-70
2022/07/31 03:14:34;;;;;;;6.30;5.70;;;;;;;;;;5075006;28;20452;-70
2022/07/31 03:17:02;;;;;;;9.53;4.40;;;;;;;;;;5075497;28;20435;-70
2022/07/31 03:19:29;;;;;;;5.93;5.13;;;;;;;;;;5074872;28;20496;-70
2022/07/31 03:21:56;;;;;;;6.00;5.20;;;;;;;;;;5074530;28;20471;-70
2022/07/31 03:24:25;;;;;;;6.97;5.30;;;;;;;;;;5074862;28;20956;-70
2022/07/31 03:26:52;;;;;;;4.97;4.47;;;;;;;;;;5074824;28;20444;-70
2022/07/31 03:29:19;;;;;;;6.50;5.20;;;;;;;;;;5074714;28;20459;-70
2022/07/31 03:31:48;;;;;;;5.87;5.37;;;;;;;;;;5074348;28;20463;-70
2022/07/31 03:34:15;;;;;;;6.03;5.43;;;;;;;;;;5074668;28;20816;-70
2022/07/31 03:36:43;;;;;;;6.23;5.63;;;;;;;;;;5074313;28;20547;-70
2022/07/31 03:39:10;;;;;;;6.60;5.27;;;;;;;;;;5074586;28;20475;-70
2022/07/31 03:41:37;;;;;;;7.37;6.30;;;;;;;;;;5073979;28;20472;-70
2022/07/31 03:44:05;;;;;;;6.57;5.90;;;;;;;;;;5074282;28;20952;-70
2022/07/31 03:46:32;;;;;;;5.83;5.30;;;;;;;;;;5074101;28;20460;-70
2022/07/31 03:49:01;;;;;;;6.40;5.87;;;;;;;;;;5074392;28;20808;-70
2022/07/31 03:51:28;;;;;;;7.30;6.57;;;;;;;;;;5074536;28;20452;-70
2022/07/31 03:53:55;;;;;;;7.10;6.50;;;;;;;;;;5074183;28;20475;-70
2022/07/31 03:56:24;;;;;;;6.63;6.00;;;;;;;;;;5074230;28;20447;-70
2022/07/31 03:58:51;;;;;;;7.73;7.10;;;;;;;;;;5074204;28;20455;-70
2022/07/31 04:01:18;;;;;;;6.10;5.60;;;;;;;;;;5073763;28;20488;-70
2022/07/31 04:03:45;;;;;;;6.87;6.23;;;;;;;;;;5074069;28;20982;-70
2022/07/31 04:06:14;;;;;;;5.83;5.33;;;;;;;;;;5074029;28;20467;-70
2022/07/31 04:08:41;;;;;;;6.20;5.30;;;;;;;;;;5073165;28;20484;-70
2022/07/31 04:11:08;;;;;;;5.20;4.80;;;;;;;;;;5073992;28;20455;-70
2022/07/31 04:13:36;;;;;;;5.33;4.93;;;;;;;;;;5073824;28;20471;-70
2022/07/31 04:16:03;;;;;;;6.83;5.13;;;;;;;;;;5073872;28;20827;-70
2022/07/31 04:18:30;;;;;;;5.30;4.80;;;;;;;;;;5073885;28;20900;-70
2022/07/31 04:20:58;;;;;;;5.07;4.60;;;;;;;;;;5073772;28;20491;-70
2022/07/31 04:23:26;;;;;;;5.93;4.60;;;;;;;;;;5073333;28;20566;-70
2022/07/31 04:25:53;;;;;;;5.77;5.20;;;;;;;;;;5073441;28;20464;-70
2022/07/31 04:28:20;;;;;;;6.10;4.60;;;;;;;;;;5073720;28;20451;-70
2022/07/31 04:30:47;;;;;;;5.23;4.60;;;;;;;;;;5073399;28;20444;-70
2022/07/31 04:33:15;;;;;;;4.70;4.30;;;;;;;;;;5073602;28;20529;-70
2022/07/31 04:35:42;;;;;;;4.50;4.13;;;;;;;;;;5073633;28;20826;-70
2022/07/31 04:38:10;;;;;;;4.97;4.47;;;;;;;;;;5073762;28;20451;-70
2022/07/31 04:40:39;;;;;;;8.30;4.20;;;;;;;;;;5073534;28;20472;-70
2022/07/31 04:43:06;;;;;;;5.23;3.40;;;;;;;;;;5073410;28;20855;-70
2022/07/31 04:45:33;;;;;;;6.30;3.23;;;;;;;;;;5073254;28;20458;-70
2022/07/31 04:48:00;;;;;;;3.87;3.57;;;;;;;;;;5073491;28;20951;-72
2022/07/31 04:50:28;;;;;;;3.33;3.03;;;;;;;;;;5073153;28;20462;-72
2022/07/31 04:52:55;;;;;;;2.80;2.60;;;;;;;;;;5073431;28;20832;-71
2022/07/31 04:55:23;;;;;;;3.83;2.90;;;;;;;;;;5073612;28;20448;-71
2022/07/31 04:57:51;;;;;;;4.40;2.93;;;;;;;;;;5073456;28;20534;-71
2022/07/31 05:00:18;;;;;;;2.87;2.57;;;;;;;;;;5073302;28;20856;-71
2022/07/31 05:02:45;;;;;;;2.90;2.70;;;;;;;;;;5073377;28;20828;-71
2022/07/31 05:05:12;;;;;;;3.60;3.30;;;;;;;;;;5072964;28;20448;-71
2022/07/31 05:07:40;;;;;;;4.67;3.23;;;;;;;;;;5073522;28;20447;-71
2022/07/31 05:10:07;;;;;;;3.93;3.00;;;;;;;;;;5073263;28;20952;-71
2022/07/31 05:12:34;;;;;;;3.13;2.87;;;;;;;;;;5072872;28;20483;-71
2022/07/31 05:15:03;;;;;;;2.93;2.50;;;;;;;;;;5073223;28;20451;-71
2022/07/31 05:17:30;;;;;;;3.70;2.90;;;;;;;;;;5073152;28;20479;-71
2022/07/31 05:19:57;;;;;;;9.37;3.10;;;;;;;;;;5074470;28;20440;-72
2022/07/31 05:22:24;;;;;;;3.07;2.87;;;;;;;;;;5077143;28;20468;-71
2022/07/31 05:24:51;;;;;;;3.73;3.37;;;;;;;;;;5077150;28;20459;-72
2022/07/31 05:27:19;;;;;;;4.13;3.67;;;;;;;;;;5077111;28;20454;-71
2022/07/31 05:29:46;;;;;;;4.83;3.63;;;;;;;;;;5077090;28;20451;-71
2022/07/31 05:32:14;;;;;;;4.13;2.97;;;;;;;;;;5076673;28;20472;-71
2022/07/31 05:34:41;;;;;;;3.67;3.37;;;;;;;;;;5076999;28;20451;-71
2022/07/31 05:37:08;;;;;;;5.07;4.57;;;;;;;;;;5076609;28;20458;-71
2022/07/31 05:39:35;;;;;;;3.50;3.10;;;;;;;;;;5076923;28;20453;-71
2022/07/31 05:42:03;;;;;;;5.53;4.30;;;;;;;;;;5076944;28;20996;-71
2022/07/31 05:44:30;;;;;;;4.17;3.67;;;;;;;;;;5076469;28;20463;-71
2022/07/31 05:46:58;;;;;;;3.73;3.40;;;;;;;;;;5076457;28;20458;-71
2022/07/31 05:49:27;;;;;;;7.03;3.80;;;;;;;;;;5076685;28;20505;-71
2022/07/31 05:51:55;;;;;;;4.33;3.80;;;;;;;;;;5076592;28;20499;-71
2022/07/31 05:54:22;;;;;;;7.30;3.67;;;;;;;;;;5076602;28;20948;-71
2022/07/31 05:56:49;;;;;;;3.63;3.33;;;;;;;;;;5076567;28;20819;-71
2022/07/31 05:59:17;;;;;;;5.87;3.83;;;;;;;;;;5076159;28;20454;-71
2022/07/31 06:01:45;;;;;;;4.10;3.70;;;;;;;;;;5076311;28;20987;-71
2022/07/31 06:04:12;;;;;;;4.23;3.60;;;;;;;;;;5074032;28;20475;-71
2022/07/31 06:06:40;;;;;;;4.73;4.13;;;;;;;;;;5075110;28;20820;-71
2022/07/31 06:09:07;;;;;;;4.93;3.50;;;;;;;;;;5074804;28;20466;-72
2022/07/31 06:11:35;;;;;;;4.93;3.50;;;;;;;;;;5074976;28;20450;-71
2022/07/31 06:14:02;;;;;;;4.47;3.17;;;;;;;;;;5074842;28;20796;-72
2022/07/31 06:16:29;;;;;;;3.90;3.60;;;;;;;;;;5074564;28;21042;-71
2022/07/31 06:18:56;;;;;;;7.60;4.57;;;;;;;;;;5074871;28;20929;-71
2022/07/31 06:21:23;;;;;;;3.97;3.57;;;;;;;;;;5074769;28;20483;-71
2022/07/31 06:23:52;;;;;;;3.77;3.47;;;;;;;;;;5074788;28;20915;-71
2022/07/31 06:26:19;;;;;;;4.07;3.67;;;;;;;;;;5074662;28;20448;-71
2022/07/31 06:28:47;;;;;;;4.20;3.80;;;;;;;;;;5074680;28;20596;-71
2022/07/31 06:31:17;;;;;;;5.53;4.27;;;;;;;;;;5074078;28;20455;-71
2022/07/31 06:33:44;;;;;;;9.33;4.07;;;;;;;;;;5074418;28;20460;-71
2022/07/31 06:36:11;;;;;;;5.43;3.77;;;;;;;;;;5074635;28;20928;-71
2022/07/31 06:38:38;;;;;;;5.80;4.00;;;;;;;;;;5074799;28;20442;-71
2022/07/31 06:41:06;;;;;;;6.13;4.27;;;;;;;;;;5074164;28;20472;-71
2022/07/31 06:43:33;;;;;;;4.30;4.00;;;;;;;;;;5074106;28;20526;-71
2022/07/31 06:46:01;;;;;;;5.43;4.30;;;;;;;;;;5074667;28;20971;-71
2022/07/31 06:48:28;;;;;;;5.63;5.03;;;;;;;;;;5074851;28;20448;-71
2022/07/31 06:50:55;;;;;;;5.93;3.73;;;;;;;;;;5074095;28;20447;-71
2022/07/31 06:53:22;;;;;;;5.13;3.83;;;;;;;;;;5074120;28;20490;-71
2022/07/31 06:55:49;;;;;;;4.00;3.10;;;;;;;;;;5074238;28;20455;-71
2022/07/31 06:58:17;;;;;;;3.83;3.53;;;;;;;;;;5073709;28;20452;-71
2022/07/31 07:00:44;;;;;;;3.67;3.37;;;;;;;;;;5074078;28;20487;-71
2022/07/31 07:03:12;;;;;;;7.73;5.20;;;;;;;;;;5073614;28;20476;-71
2022/07/31 07:05:39;;;;;;;6.73;3.90;;;;;;;;;;5073685;28;20455;-71
2022/07/31 07:08:06;;;;;;;8.43;4.03;;;;;;;;;;5073838;28;20455;-71
2022/07/31 07:10:33;;;;;;;5.77;5.23;;;;;;;;;;5074012;28;20889;-72
2022/07/31 07:13:00;;;;;;;3.87;3.47;;;;;;;;;;5073928;28;20467;-71
2022/07/31 07:15:29;;;;;;;4.10;3.70;;;;;;;;;;5073913;28;20799;-71
2022/07/31 07:17:56;;;;;;;2.93;2.73;;;;;;;;;;5073472;28;20452;-71
2022/07/31 07:20:23;;;;;;;5.63;3.80;;;;;;;;;;5073511;28;20466;-72
2022/07/31 07:22:50;;;;;;;4.47;3.30;;;;;;;;;;5073626;28;20463;-72
2022/07/31 07:25:19;;;;;;;4.40;3.70;;;;;;;;;;5073508;28;20455;-72
2022/07/31 07:27:46;;;;;;;3.50;3.20;;;;;;;;;;5073583;28;21016;-72
2022/07/31 07:30:13;;;;;;;4.03;3.40;;;;;;;;;;5073983;28;20443;-72
2022/07/31 07:32:42;;;;;;;4.20;2.83;;;;;;;;;;5074684;28;20998;-72
2022/07/31 07:35:11;;;;;;;4.83;3.37;;;;;;;;;;5074474;28;20440;-72
2022/07/31 07:37:39;;;;;;;3.43;3.13;;;;;;;;;;5074569;28;20944;-72
2022/07/31 07:40:07;;;;;;;7.40;4.40;;;;;;;;;;5074547;28;20470;-72
2022/07/31 07:45:15;;;;;;;3.83;3.50;;;;;;;;;;5032057;28;21045;-72
2022/07/31 07:47:44;;;;;;;4.27;3.50;;;;;;;;;;5070959;28;20455;-72
2022/07/31 07:50:12;;;;;;;4.10;3.80;;;;;;;;;;5074486;28;20448;-72
2022/07/31 07:52:39;;;;;;;5.10;3.60;;;;;;;;;;5074286;28;20456;-72
2022/07/31 07:55:07;;;;;;;5.20;3.37;;;;;;;;;;5074340;28;20450;-72
2022/07/31 07:57:35;;;;;;;5.63;3.60;;;;;;;;;;5074118;28;20439;-72
2022/07/31 08:00:04;;;;;;;5.17;3.30;;;;;;;;;;5074177;28;20439;-72
2022/07/31 08:02:31;;;;;;;3.90;3.43;;;;;;;;;;5074024;28;20534;-72
2022/07/31 08:08:03;;;;;;;5.40;3.50;;;;;;;;;;5074495;28;20429;-72
2022/07/31 08:13:36;;;;;;;4.30;3.30;;;;;;;;;;5073972;28;20422;-72
2022/07/31 08:16:04;;;;;;;3.60;2.90;;;;;;;;;;5073724;28;20973;-73
2022/07/31 08:21:36;;;;;;;4.37;3.43;;;;;;;;;;5073748;28;20494;-72
2022/07/31 08:24:04;;;;;;;4.07;3.67;;;;;;;;;;5073423;28;20451;-72
2022/07/31 08:27:22;;;;;;;4.43;3.70;;;;;;;;;;5073338;28;20452;-72
2022/07/31 08:29:19;;;;;;;4.37;3.90;;;;;;;;;;5073214;28;20969;-72
2022/07/31 08:31:46;;;;;;;3.87;3.57;;;;;;;;;;5073622;28;20963;-72
2022/07/31 08:34:13;;;;;;;8.97;3.90;;;;;;;;;;5073462;28;20941;-71
2022/07/31 08:36:40;;;;;;;7.10;4.00;;;;;;;;;;5073317;28;20458;-71
2022/07/31 08:39:09;;;;;;;3.60;2.97;;;;;;;;;;5073509;28;20436;-71
2022/07/31 08:41:39;;;;;;;5.17;3.57;;;;;;;;;;5073338;28;20474;-72
2022/07/31 08:44:06;;;;;;;4.97;3.27;;;;;;;;;;5073192;28;20953;-71
2022/07/31 08:46:36;;;;;;;5.57;3.77;;;;;;;;;;5073365;28;20448;-72
2022/07/31 08:49:03;;;;;;;8.07;3.63;;;;;;;;;;5073556;28;20458;-72
2022/07/31 08:51:31;;;;;;;5.03;3.70;;;;;;;;;;5073036;28;20454;-72
2022/07/31 08:53:59;;;;;;;3.40;3.10;;;;;;;;;;5072669;28;20479;-72
2022/07/31 08:56:28;;;;;;;11.07;3.67;;;;;;;;;;5072937;28;20463;-71
2022/07/31 08:58:56;;;;;;;3.73;3.40;;;;;;;;;;5073368;28;21022;-72
2022/07/31 09:01:24;;;;;;;4.70;4.07;;;;;;;;;;5073488;28;20487;-72
2022/07/31 09:03:51;;;;;;;5.00;3.33;;;;;;;;;;5073303;28;20482;-72
2022/07/31 09:06:18;;;;;;;3.73;3.43;;;;;;;;;;5073005;28;20444;-72
2022/07/31 09:08:45;;;;;;;6.50;3.30;;;;;;;;;;5073274;28;20448;-71
2022/07/31 09:11:15;;;;;;;3.37;3.07;;;;;;;;;;5073267;28;20455;-71
2022/07/31 09:13:52;;;;;;;4.37;3.97;;;;;;;;;;5072993;28;20479;-72
2022/07/31 09:16:20;;;;;;;4.90;3.57;;;;;;;;;;5073308;28;20439;-72
2022/07/31 09:18:55;;;;;;;6.57;3.63;;;;;;;;;;5073439;28;20455;-72
2022/07/31 09:21:22;;;;;;;4.93;4.10;;;;;;;;;;5073045;28;20486;-72
2022/07/31 09:23:49;;;;;;;3.80;3.43;;;;;;;;;;5073083;28;20471;-72
2022/07/31 09:26:16;;;;;;;4.60;3.30;;;;;;;;;;5072863;28;20456;-72
2022/07/31 09:28:46;;;;;;;4.93;3.50;;;;;;;;;;5073145;28;20456;-72
2022/07/31 09:34:26;;;;;;;3.33;3.00;;;;;;;;;;5072813;28;20463;-72
2022/07/31 09:36:53;;;;;;;4.50;3.70;;;;;;;;;;5073089;28;20435;-72
2022/07/31 09:39:20;;;;;;;4.60;3.67;;;;;;;;;;5073009;28;20466;-71
2022/07/31 09:41:51;;;;;;;4.10;3.53;;;;;;;;;;5072873;28;20961;-72
2022/07/31 09:44:19;;;;;;;4.37;3.53;;;;;;;;;;5072692;28;20957;-72
2022/07/31 09:46:49;;;;;;;5.97;3.60;;;;;;;;;;5072971;28;20948;-72
2022/07/31 09:49:16;;;;;;;3.80;3.00;;;;;;;;;;5072854;28;20819;-72
2022/07/31 09:51:43;;;;;;;5.30;3.30;;;;;;;;;;5072573;28;20438;-72
2022/07/31 09:54:21;;;;;;;3.53;3.23;;;;;;;;;;5072791;28;20474;-72
2022/07/31 09:56:49;;;;;;;2.70;2.50;;;;;;;;;;5072856;28;20501;-72
2022/07/31 09:59:16;;;;;;;6.67;3.43;;;;;;;;;;5073316;28;20485;-72
2022/07/31 10:01:47;;;;;;;3.40;2.90;;;;;;;;;;5072603;28;20479;-72
2022/07/31 10:04:16;;;;;;;3.33;2.80;;;;;;;;;;5072469;28;20450;-72
2022/07/31 10:06:47;;;;;;;2.93;2.50;;;;;;;;;;5073907;28;20438;-72
2022/07/31 10:09:15;;;;;;;4.93;3.10;;;;;;;;;;5076379;28;20902;-72
2022/07/31 10:11:42;;;;;;;3.23;2.93;;;;;;;;;;5075834;28;20451;-72
2022/07/31 10:14:13;;;;;;;4.27;3.10;;;;;;;;;;5076188;28;20458;-71
2022/07/31 10:16:41;;;;;;;5.43;3.17;;;;;;;;;;5076170;28;20923;-72
2022/07/31 10:19:12;;;;;;;4.57;3.83;;;;;;;;;;5076359;28;20436;-72
2022/07/31 10:21:41;;;;;;;3.63;3.33;;;;;;;;;;5075841;28;20491;-72
2022/07/31 10:24:08;;;;;;;4.40;2.50;;;;;;;;;;5076281;28;20450;-72
2022/07/31 10:26:35;;;;;;;5.27;4.07;;;;;;;;;;5076025;28;20466;-72
2022/07/31 10:29:03;;;;;;;3.90;3.60;;;;;;;;;;5076120;28;20473;-72
2022/07/31 10:31:31;;;;;;;3.67;3.13;;;;;;;;;;5075954;28;20521;-72
2022/07/31 10:33:58;;;;;;;6.33;5.70;;;;;;;;;;5075591;28;20480;-72
2022/07/31 10:36:29;;;;;;;3.97;3.57;;;;;;;;;;5075747;28;20456;-72
2022/07/31 10:38:59;;;;;;;4.90;3.90;;;;;;;;;;5075874;28;20530;-72
2022/07/31 10:41:32;;;;;;;3.20;2.90;;;;;;;;;;5075800;28;20451;-73
2022/07/31 10:44:01;;;;;;;5.27;4.50;;;;;;;;;;5075178;28;20486;-72
2022/07/31 10:46:28;;;;;;;2.90;2.70;;;;;;;;;;5075919;28;20929;-72
2022/07/31 10:48:55;;;;;;;5.37;4.87;;;;;;;;;;5075279;28;20456;-73
2022/07/31 10:51:23;;;;;;;2.70;2.20;;;;;;;;;;5075184;28;20448;-73
2022/07/31 10:53:55;;;;;;;10.47;3.40;;;;;;;;;;5076017;28;20563;-72
2022/07/31 10:56:22;;;;;;;4.73;2.67;;;;;;;;;;5075470;28;20451;-72
2022/07/31 10:58:50;;;;;;;3.20;2.23;;;;;;;;;;5075468;28;20454;-72
2022/07/31 11:01:17;;;;;;;3.97;2.70;;;;;;;;;;5075447;28;20819;-72
2022/07/31 11:03:46;;;;;;;3.17;2.30;;;;;;;;;;5075158;28;20491;-72
2022/07/31 11:06:14;;;;;;;3.30;2.20;;;;;;;;;;5075375;28;20432;-72
2022/07/31 11:08:41;;;;;;;2.80;2.20;;;;;;;;;;5075193;28;20456;-72
2022/07/31 11:11:10;;;;;;;2.60;2.40;;;;;;;;;;5075218;28;20525;-72
2022/07/31 11:13:50;;;;;;;2.73;2.40;;;;;;;;;;5074911;28;20467;-72
2022/07/31 11:16:17;;;;;;;2.33;2.13;;;;;;;;;;5075147;28;20900;-72
2022/07/31 11:18:46;;;;;;;2.60;2.40;;;;;;;;;;5074382;28;20546;-72
2022/07/31 11:21:13;;;;;;;3.83;3.43;;;;;;;;;;5074994;28;20455;-72
2022/07/31 11:23:40;;;;;;;4.40;2.43;;;;;;;;;;5074813;28;20518;-72
2022/07/31 11:26:08;;;;;;;4.70;2.20;;;;;;;;;;5074975;28;20463;-72
2022/07/31 11:28:36;;;;;;;3.10;2.10;;;;;;;;;;5074661;28;20974;-72
2022/07/31 11:31:05;;;;;;;3.37;2.10;;;;;;;;;;5074762;28;20447;-72
2022/07/31 11:33:35;;;;;;;5.43;2.53;;;;;;;;;;5074540;28;20559;-72
2022/07/31 11:36:09;;;;;;;3.30;2.17;;;;;;;;;;5074447;28;20456;-72
2022/07/31 11:38:36;;;;;;;3.57;2.70;;;;;;;;;;5074846;28;20448;-72
2022/07/31 11:41:04;;;;;;;8.10;2.47;;;;;;;;;;5074056;28;20821;-72
2022/07/31 11:43:33;;;;;;;6.10;2.43;;;;;;;;;;5073970;28;20855;-72
2022/07/31 11:46:02;;;;;;;3.77;2.40;;;;;;;;;;5074532;28;20559;-72
2022/07/31 11:48:31;;;;;;;2.60;2.40;;;;;;;;;;5074047;28;20452;-72
2022/07/31 11:50:58;;;;;;;2.93;2.63;;;;;;;;;;5074244;28;21025;-72
2022/07/31 11:53:26;;;;;;;4.20;2.70;;;;;;;;;;5074131;28;20476;-72
2022/07/31 11:55:54;;;;;;;2.70;2.50;;;;;;;;;;5074367;28;20447;-72
2022/07/31 11:58:23;;;;;;;2.60;2.40;;;;;;;;;;5074001;28;20456;-72
2022/07/31 12:00:52;;;;;;;3.27;3.00;;;;;;;;;;5073921;28;20439;-73
2022/07/31 12:03:22;;;;;;;3.03;2.60;;;;;;;;;;5073952;28;20495;-72
2022/07/31 12:05:51;;;;;;;3.13;2.77;;;;;;;;;;5082403;28;20435;-72
2022/07/31 12:08:18;;;;;;;3.57;2.90;;;;;;;;;;5094338;28;20505;-72
2022/07/31 12:10:46;;;;;;;2.80;2.50;;;;;;;;;;5094393;28;20923;-72
2022/07/31 12:13:14;;;;;;;3.63;3.33;;;;;;;;;;5093897;28;20477;-72
2022/07/31 12:15:41;;;;;;;3.60;3.30;;;;;;;;;;5094274;28;20454;-72
2022/07/31 12:18:09;;;;;;;4.03;2.80;;;;;;;;;;5085905;28;20447;-72
2022/07/31 12:20:37;;;;;;;4.73;3.20;;;;;;;;;;5073758;28;20443;-72
2022/07/31 12:23:05;;;;;;;3.50;3.10;;;;;;;;;;5073352;28;20495;-72
2022/07/31 12:25:44;;;;;;;3.73;3.43;;;;;;;;;;5073616;28;20530;-72
2022/07/31 12:28:13;;;;;;;3.13;2.60;;;;;;;;;;5073394;28;20456;-72
2022/07/31 12:30:41;;;;;;;2.80;2.60;;;;;;;;;;5073050;28;20448;-72
2022/07/31 12:33:08;;;;;;;6.33;2.90;;;;;;;;;;5073267;28;20471;-72
2022/07/31 12:35:37;;;;;;;3.23;2.93;;;;;;;;;;5073638;28;20452;-72
2022/07/31 12:38:05;;;;;;;3.43;2.90;;;;;;;;;;5073315;28;20448;-72
2022/07/31 12:40:32;;;;;;;8.20;3.00;;;;;;;;;;5073461;28;20456;-72
2022/07/31 12:42:59;;;;;;;2.43;2.23;;;;;;;;;;5073585;28;21005;-72
2022/07/31 12:45:30;;;;;;;2.43;2.23;;;;;;;;;;5073377;28;20448;-72
2022/07/31 12:47:57;;;;;;;5.53;2.60;;;;;;;;;;5073361;28;20466;-71
2022/07/31 12:50:25;;;;;;;5.90;2.77;;;;;;;;;;5073473;28;20941;-71
2022/07/31 12:52:54;;;;;;;3.03;2.53;;;;;;;;;;5073361;28;20472;-72
2022/07/31 12:55:22;;;;;;;3.00;2.70;;;;;;;;;;5073282;28;20455;-72
2022/07/31 12:57:49;;;;;;;4.80;3.50;;;;;;;;;;5073437;28;20447;-72
2022/07/31 13:00:18;;;;;;;2.50;2.30;;;;;;;;;;5073521;28;20464;-72
2022/07/31 13:02:45;;;;;;;3.70;2.70;;;;;;;;;;5073155;28;20483;-72
2022/07/31 13:05:12;;;;;;;2.43;2.23;;;;;;;;;;5073131;28;20448;-72
2022/07/31 13:07:39;;;;;;;3.77;2.67;;;;;;;;;;5073062;28;20452;-72
2022/07/31 13:10:08;;;;;;;3.07;2.67;;;;;;;;;;5073334;28;20432;-72
2022/07/31 13:12:35;;;;;;;2.50;2.30;;;;;;;;;;5072978;28;20483;-72
2022/07/31 13:15:02;;;;;;;2.43;2.23;;;;;;;;;;5073350;28;20793;-72
2022/07/31 13:17:30;;;;;;;2.77;2.57;;;;;;;;;;5073271;28;20451;-72
2022/07/31 13:19:57;;;;;;;2.60;2.40;;;;;;;;;;5073236;28;20440;-72
2022/07/31 13:22:24;;;;;;;4.23;2.47;;;;;;;;;;5072985;28;20479;-72
2022/07/31 13:24:51;;;;;;;3.37;2.27;;;;;;;;;;5073156;28;20448;-72
2022/07/31 13:27:19;;;;;;;5.33;2.70;;;;;;;;;;5073124;28;20442;-72
2022/07/31 13:29:48;;;;;;;2.93;2.50;;;;;;;;;;5073124;28;20451;-72
2022/07/31 13:32:15;;;;;;;4.77;3.37;;;;;;;;;;5072963;28;20471;-72
2022/07/31 13:34:42;;;;;;;3.60;2.17;;;;;;;;;;5073326;28;20543;-72
2022/07/31 13:37:09;;;;;;;5.00;2.30;;;;;;;;;;5073115;28;20933;-73
2022/07/31 13:39:37;;;;;;;3.67;2.70;;;;;;;;;;5072793;28;20458;-72
2022/07/31 13:42:04;;;;;;;4.87;2.60;;;;;;;;;;5076282;28;20483;-72
2022/07/31 13:44:33;;;;;;;4.80;2.27;;;;;;;;;;5076556;28;20900;-72
2022/07/31 13:47:00;;;;;;;3.60;2.67;;;;;;;;;;5076851;28;20513;-72
2022/07/31 13:49:30;;;;;;;3.80;2.73;;;;;;;;;;5076801;28;20455;-72
2022/07/31 13:51:58;;;;;;;3.10;2.23;;;;;;;;;;5076350;28;20566;-72
2022/07/31 13:54:25;;;;;;;3.30;2.17;;;;;;;;;;5076294;28;20463;-72
2022/07/31 13:56:52;;;;;;;3.10;2.53;;;;;;;;;;5076714;28;20447;-72
2022/07/31 13:59:19;;;;;;;7.43;2.57;;;;;;;;;;5076204;28;20452;-72
2022/07/31 14:01:50;;;;;;;2.70;2.50;;;;;;;;;;5076477;28;20921;-72
2022/07/31 14:04:17;;;;;;;3.60;3.30;;;;;;;;;;5076404;28;20540;-72
2022/07/31 14:06:45;;;;;;;4.10;2.50;;;;;;;;;;5076416;28;20466;-72
2022/07/31 14:09:12;;;;;;;6.10;3.37;;;;;;;;;;5076119;28;20454;-72
2022/07/31 14:11:39;;;;;;;8.90;4.30;;;;;;;;;;5076227;28;20451;-72
2022/07/31 14:14:06;;;;;;;3.37;3.07;;;;;;;;;;5076305;28;20448;-72
2022/07/31 14:16:33;;;;;;;3.33;3.03;;;;;;;;;;5076243;28;20474;-72
2022/07/31 14:19:02;;;;;;;2.93;2.63;;;;;;;;;;5076010;28;20436;-72
2022/07/31 14:21:29;;;;;;;2.93;2.63;;;;;;;;;;5075809;28;20447;-72
2022/07/31 14:23:56;;;;;;;6.80;2.23;;;;;;;;;;5075746;28;20931;-72
2022/07/31 14:26:23;;;;;;;3.10;2.73;;;;;;;;;;5075759;28;20451;-72
2022/07/31 14:28:50;;;;;;;2.57;2.30;;;;;;;;;;5076076;28;20448;-72
2022/07/31 14:31:17;;;;;;;2.90;2.60;;;;;;;;;;5076063;28;20453;-72
2022/07/31 14:33:44;;;;;;;2.80;2.60;;;;;;;;;;5075527;28;20482;-72
2022/07/31 14:36:13;;;;;;;3.07;2.57;;;;;;;;;;5075970;28;20499;-73
2022/07/31 14:38:40;;;;;;;3.30;2.93;;;;;;;;;;5075871;28;20455;-72
2022/07/31 14:41:07;;;;;;;3.40;2.73;;;;;;;;;;5075823;28;20803;-72
2022/07/31 14:43:34;;;;;;;3.07;2.77;;;;;;;;;;5075517;28;20504;-72
2022/07/31 14:46:01;;;;;;;3.40;2.70;;;;;;;;;;5075539;28;20449;-72
2022/07/31 14:48:28;;;;;;;2.27;2.07;;;;;;;;;;5075526;28;20444;-72
2022/07/31 14:50:55;;;;;;;3.73;2.13;;;;;;;;;;5075250;28;20463;-72
2022/07/31 14:53:24;;;;;;;2.83;2.40;;;;;;;;;;5074320;28;20522;-72
2022/07/31 14:55:51;;;;;;;5.90;2.90;;;;;;;;;;5075118;28;20447;-72
2022/07/31 14:58:18;;;;;;;4.67;2.83;;;;;;;;;;5075152;28;20456;-72
2022/07/31 15:00:45;;;;;;;3.40;3.10;;;;;;;;;;5075619;28;20813;-72
2022/07/31 15:03:13;;;;;;;4.50;4.10;;;;;;;;;;5074778;28;20586;-72